Time;durP1;ratioP1;P1;durP2;ratioP2;P2;SDS_P1;SDS_P2;PMS_P1;PMS_P2;Temp;Humidity;BMP_temperature;BMP_pressure;BME280_temperature;BME280_humidity;BME280_pressure;Samples;Min_cycle;Max_cycle;Signal;HPM_P1;HPM_P2
2023/08/30 00:04:17;;;;;;;3.72;0.90;;;;;;;;;;10023634;28;20058;-75
2023/08/30 00:09:09;;;;;;;0.75;0.70;;;;;;;;;;10023342;28;20056;-77
2023/08/30 00:14:05;;;;;;;0.82;0.80;;;;;;;;;;10023152;28;20042;-74
2023/08/30 00:18:57;;;;;;;1.70;1.02;;;;;;;;;;10023826;28;20061;-77
2023/08/30 00:23:49;;;;;;;3.13;1.40;;;;;;;;;;10023916;28;20100;-74
2023/08/30 00:28:41;;;;;;;3.00;1.30;;;;;;;;;;10022978;28;20117;-72
2023/08/30 00:33:33;;;;;;;2.30;1.33;;;;;;;;;;10005933;28;20429;-75
2023/08/30 00:38:26;;;;;;;1.75;1.17;;;;;;;;;;10022980;28;20045;-74
2023/08/30 00:43:20;;;;;;;1.55;1.10;;;;;;;;;;10004844;28;20054;-74
2023/08/30 00:48:12;;;;;;;2.40;1.45;;;;;;;;;;10022847;28;20067;-72
2023/08/30 00:53:06;;;;;;;4.03;1.00;;;;;;;;;;10005237;28;20125;-73
2023/08/30 00:57:58;;;;;;;2.75;1.35;;;;;;;;;;10022872;28;20380;-75
2023/08/30 01:02:50;;;;;;;2.08;1.20;;;;;;;;;;10023524;28;20058;-75
2023/08/30 01:07:42;;;;;;;2.20;1.05;;;;;;;;;;10025409;28;20088;-73
2023/08/30 01:12:40;;;;;;;5.82;1.10;;;;;;;;;;10029720;28;20460;-75
2023/08/30 01:17:32;;;;;;;2.83;1.10;;;;;;;;;;10028491;28;20128;-73
2023/08/30 01:22:51;;;;;;;3.38;1.23;;;;;;;;;;10011746;28;20054;-74
2023/08/30 01:27:44;;;;;;;2.65;1.10;;;;;;;;;;10028971;28;20042;-74
2023/08/30 01:32:38;;;;;;;2.13;1.08;;;;;;;;;;10028749;28;20369;-74
2023/08/30 01:37:32;;;;;;;1.92;1.10;;;;;;;;;;10011144;28;20077;-72
2023/08/30 01:42:26;;;;;;;2.83;1.40;;;;;;;;;;10028516;28;20046;-73
2023/08/30 01:47:19;;;;;;;2.83;0.90;;;;;;;;;;10027914;28;20038;-73
2023/08/30 01:52:11;;;;;;;8.60;1.20;;;;;;;;;;10026760;28;20045;-73
2023/08/30 01:57:03;;;;;;;4.35;1.27;;;;;;;;;;10027155;28;20053;-74
2023/08/30 02:01:56;;;;;;;2.33;1.10;;;;;;;;;;10009416;28;20388;-73
2023/08/30 02:06:58;;;;;;;3.30;0.90;;;;;;;;;;10027569;28;20136;-73
2023/08/30 02:11:52;;;;;;;6.28;1.63;;;;;;;;;;10025997;28;20453;-74
2023/08/30 02:16:46;;;;;;;4.07;0.80;;;;;;;;;;10025659;28;20368;-74
2023/08/30 02:21:40;;;;;;;5.75;1.40;;;;;;;;;;10009618;28;20084;-72
2023/08/30 02:26:32;;;;;;;2.88;1.00;;;;;;;;;;10009050;28;20725;-75
2023/08/30 02:31:24;;;;;;;1.98;0.93;;;;;;;;;;10009470;28;20080;-74
2023/08/30 02:36:16;;;;;;;2.03;0.90;;;;;;;;;;10026438;28;20038;-72
2023/08/30 02:41:10;;;;;;;2.58;1.05;;;;;;;;;;10026529;28;20049;-74
2023/08/30 02:46:04;;;;;;;0.77;0.77;;;;;;;;;;10025861;28;20049;-75
2023/08/30 02:50:56;;;;;;;1.17;0.80;;;;;;;;;;10008105;28;20064;-72
2023/08/30 02:55:48;;;;;;;1.25;1.08;;;;;;;;;;10008271;28;20141;-73
2023/08/30 03:00:40;;;;;;;2.35;1.00;;;;;;;;;;10007056;28;20045;-74
2023/08/30 03:05:33;;;;;;;4.75;1.30;;;;;;;;;;10026010;28;20461;-74
2023/08/30 03:10:27;;;;;;;1.60;1.00;;;;;;;;;;10007900;28;20101;-74
2023/08/30 03:15:19;;;;;;;1.30;1.10;;;;;;;;;;10006863;28;20133;-74
2023/08/30 03:20:11;;;;;;;8.98;1.00;;;;;;;;;;10007167;28;20464;-74
2023/08/30 03:25:04;;;;;;;1.33;1.00;;;;;;;;;;10007246;28;20498;-74
2023/08/30 03:29:56;;;;;;;1.73;0.90;;;;;;;;;;10023676;28;20046;-74
2023/08/30 03:34:48;;;;;;;2.20;1.85;;;;;;;;;;10006881;28;20069;-75
2023/08/30 03:39:42;;;;;;;2.70;1.00;;;;;;;;;;10024143;28;20046;-75
2023/08/30 03:44:34;;;;;;;16.75;3.80;;;;;;;;;;10006311;28;20049;-73
2023/08/30 03:49:31;;;;;;;2.15;0.98;;;;;;;;;;10006504;28;20057;-75
2023/08/30 03:54:22;;;;;;;1.33;0.90;;;;;;;;;;10007035;28;20049;-75
2023/08/30 03:59:16;;;;;;;5.15;1.00;;;;;;;;;;10005844;28;20069;-73
2023/08/30 04:04:08;;;;;;;0.80;0.80;;;;;;;;;;10006158;28;20053;-72
2023/08/30 04:09:01;;;;;;;1.73;0.90;;;;;;;;;;10005816;28;20057;-73
2023/08/30 04:13:53;;;;;;;2.30;0.95;;;;;;;;;;10023277;28;20109;-73
2023/08/30 04:18:45;;;;;;;4.40;0.98;;;;;;;;;;10005297;28;20109;-73
2023/08/30 04:23:37;;;;;;;3.15;0.95;;;;;;;;;;10023253;28;20102;-73
2023/08/30 04:28:29;;;;;;;5.13;0.90;;;;;;;;;;10005245;28;20042;-74
2023/08/30 04:33:22;;;;;;;1.00;0.90;;;;;;;;;;10005915;28;20052;-74
2023/08/30 04:38:14;;;;;;;1.20;0.95;;;;;;;;;;10004485;28;20046;-73
2023/08/30 04:43:06;;;;;;;0.75;0.75;;;;;;;;;;10028977;28;20487;-75
2023/08/30 04:47:59;;;;;;;0.70;0.70;;;;;;;;;;10012871;28;20138;-75
2023/08/30 04:52:51;;;;;;;1.48;0.77;;;;;;;;;;10012534;28;20046;-75
2023/08/30 04:57:44;;;;;;;3.03;0.85;;;;;;;;;;10012490;28;20049;-75
2023/08/30 05:02:40;;;;;;;2.17;0.90;;;;;;;;;;10012207;28;20081;-74
2023/08/30 05:07:34;;;;;;;1.00;1.00;;;;;;;;;;10011935;28;20038;-74
2023/08/30 05:12:28;;;;;;;1.33;0.63;;;;;;;;;;10012501;28;20173;-75
2023/08/30 05:17:20;;;;;;;5.05;1.10;;;;;;;;;;10029661;28;20046;-74
2023/08/30 05:22:12;;;;;;;2.70;0.90;;;;;;;;;;10011516;28;20038;-74
2023/08/30 05:27:04;;;;;;;1.23;0.93;;;;;;;;;;10029659;28;20416;-74
2023/08/30 05:32:03;;;;;;;10.02;1.55;;;;;;;;;;10010931;28;20472;-75
2023/08/30 05:37:13;;;;;;;6.18;1.02;;;;;;;;;;10029403;28;20105;-72
2023/08/30 05:42:23;;;;;;;5.85;1.20;;;;;;;;;;10028701;28;20085;-73
2023/08/30 05:47:16;;;;;;;2.53;1.20;;;;;;;;;;10011312;28;20042;-73
2023/08/30 05:52:09;;;;;;;2.08;1.33;;;;;;;;;;10009367;28;20502;-74
2023/08/30 05:57:01;;;;;;;2.70;1.17;;;;;;;;;;10010433;28;20383;-73
2023/08/30 06:01:52;;;;;;;1.90;1.33;;;;;;;;;;10010147;28;20058;-73
2023/08/30 06:06:44;;;;;;;1.83;1.20;;;;;;;;;;10028015;28;20195;-73
2023/08/30 06:11:36;;;;;;;3.38;2.20;;;;;;;;;;10027325;28;20124;-73
2023/08/30 06:16:28;;;;;;;7.32;2.53;;;;;;;;;;10027747;28;20042;-73
2023/08/30 06:21:20;;;;;;;5.13;3.03;;;;;;;;;;10026617;28;20496;-75
2023/08/30 06:26:12;;;;;;;7.45;4.25;;;;;;;;;;10025135;28;20049;-74
2023/08/30 06:31:03;;;;;;;6.60;3.28;;;;;;;;;;10023257;28;20053;-74
2023/08/30 06:35:56;;;;;;;4.82;1.98;;;;;;;;;;10023510;28;20046;-73
2023/08/30 06:40:49;;;;;;;4.32;1.90;;;;;;;;;;10026458;28;20070;-74
2023/08/30 06:45:42;;;;;;;2.08;1.60;;;;;;;;;;10026489;28;20053;-74
2023/08/30 06:50:34;;;;;;;5.15;1.55;;;;;;;;;;10025575;28;20042;-74
2023/08/30 06:55:26;;;;;;;2.70;1.00;;;;;;;;;;10026225;28;20084;-74
2023/08/30 07:00:18;;;;;;;3.47;1.27;;;;;;;;;;10024635;28;20421;-73
2023/08/30 07:05:10;;;;;;;2.05;1.00;;;;;;;;;;10024755;28;20089;-73
2023/08/30 07:10:02;;;;;;;2.05;0.80;;;;;;;;;;10024995;28;20045;-74
2023/08/30 07:14:54;;;;;;;1.33;0.80;;;;;;;;;;10024749;28;20129;-74
2023/08/30 07:19:46;;;;;;;2.92;1.10;;;;;;;;;;10022649;28;20140;-74
2023/08/30 07:24:38;;;;;;;1.35;0.80;;;;;;;;;;10024988;28;20058;-75
2023/08/30 07:29:31;;;;;;;1.42;1.10;;;;;;;;;;10024795;28;20333;-75
2023/08/30 07:34:22;;;;;;;0.60;0.60;;;;;;;;;;10024305;28;20109;-75
2023/08/30 07:39:14;;;;;;;0.60;0.60;;;;;;;;;;10024349;28;20042;-74
2023/08/30 07:44:06;;;;;;;0.75;0.47;;;;;;;;;;10024296;28;20132;-74
2023/08/30 07:48:58;;;;;;;1.02;0.50;;;;;;;;;;10024283;28;20459;-74
2023/08/30 07:53:50;;;;;;;3.17;0.75;;;;;;;;;;10024163;28;20472;-75
2023/08/30 07:58:44;;;;;;;1.88;0.93;;;;;;;;;;10022948;28;20424;-75
2023/08/30 08:03:36;;;;;;;1.52;0.80;;;;;;;;;;10022683;28;20050;-73
2023/08/30 08:08:36;;;;;;;1.33;0.80;;;;;;;;;;10023254;28;20046;-75
2023/08/30 08:13:28;;;;;;;1.63;0.80;;;;;;;;;;10022942;28;20081;-74
2023/08/30 08:18:20;;;;;;;2.90;0.73;;;;;;;;;;10030243;28;20105;-75
2023/08/30 08:23:12;;;;;;;2.72;0.82;;;;;;;;;;10030731;28;20475;-75
2023/08/30 08:28:04;;;;;;;1.20;0.70;;;;;;;;;;10031108;28;20049;-74
2023/08/30 08:32:57;;;;;;;0.63;0.63;;;;;;;;;;10031262;28;20038;-75
2023/08/30 08:37:49;;;;;;;1.35;0.50;;;;;;;;;;10030733;28;20050;-77
2023/08/30 08:42:42;;;;;;;1.92;1.17;;;;;;;;;;10030800;28;20074;-73
2023/08/30 08:47:34;;;;;;;0.60;0.60;;;;;;;;;;10030267;28;20140;-73
2023/08/30 08:52:26;;;;;;;1.25;0.60;;;;;;;;;;10030354;28;20042;-74
2023/08/30 08:57:26;;;;;;;8.60;0.80;;;;;;;;;;10030743;28;20054;-73
2023/08/30 09:02:18;;;;;;;0.60;0.60;;;;;;;;;;10029458;28;20053;-74
2023/08/30 09:07:10;;;;;;;2.15;0.60;;;;;;;;;;10029799;28;20050;-74
2023/08/30 09:12:03;;;;;;;0.40;0.40;;;;;;;;;;10027805;28;20054;-75
2023/08/30 09:16:55;;;;;;;0.60;0.50;;;;;;;;;;10028694;28;20077;-73
2023/08/30 09:21:54;;;;;;;0.82;0.63;;;;;;;;;;10028615;28;20387;-75
2023/08/30 09:26:48;;;;;;;1.45;0.63;;;;;;;;;;10027579;28;20056;-74
2023/08/30 09:31:41;;;;;;;0.65;0.40;;;;;;;;;;10028408;28;20093;-74
2023/08/30 09:36:48;;;;;;;2.60;0.60;;;;;;;;;;10028466;28;20053;-75
2023/08/30 09:41:41;;;;;;;0.55;0.55;;;;;;;;;;10026685;28;20045;-75
2023/08/30 09:46:44;;;;;;;0.70;0.60;;;;;;;;;;10026841;28;20112;-74
2023/08/30 09:51:46;;;;;;;0.93;0.70;;;;;;;;;;10026964;28;20046;-75
2023/08/30 09:56:38;;;;;;;1.25;0.80;;;;;;;;;;10026722;28;20069;-74
2023/08/30 10:01:30;;;;;;;0.82;0.60;;;;;;;;;;10027124;28;20503;-75
2023/08/30 10:06:24;;;;;;;0.77;0.70;;;;;;;;;;10027446;28;20220;-74
2023/08/30 10:11:18;;;;;;;4.15;0.70;;;;;;;;;;10027223;28;20070;-74
2023/08/30 10:16:12;;;;;;;1.13;0.70;;;;;;;;;;10026815;28;20046;-71
2023/08/30 10:21:08;;;;;;;0.63;0.63;;;;;;;;;;10037047;28;20129;-74
2023/08/30 10:26:00;;;;;;;1.33;0.73;;;;;;;;;;10026101;28;20042;-74
2023/08/30 10:30:53;;;;;;;0.73;0.50;;;;;;;;;;10023755;28;20052;-81
2023/08/30 10:35:51;;;;;;;0.80;0.70;;;;;;;;;;10023140;28;20385;-82
2023/08/30 10:40:47;;;;;;;0.65;0.65;;;;;;;;;;10022208;28;20053;-75
2023/08/30 10:45:40;;;;;;;1.08;0.80;;;;;;;;;;10026685;28;20046;-79
2023/08/30 10:50:34;;;;;;;0.60;0.60;;;;;;;;;;10026264;28;20056;-80
2023/08/30 10:55:26;;;;;;;1.27;0.90;;;;;;;;;;10035180;28;20041;-82
2023/08/30 11:00:19;;;;;;;0.82;0.70;;;;;;;;;;10065772;28;20049;-82
2023/08/30 11:05:10;;;;;;;2.10;0.60;;;;;;;;;;10065449;28;20059;-82
2023/08/30 11:10:06;;;;;;;1.30;0.68;;;;;;;;;;10065468;28;20045;-84
2023/08/30 11:14:58;;;;;;;0.50;0.50;;;;;;;;;;10059392;28;20147;-83
2023/08/30 11:19:51;;;;;;;0.80;0.60;;;;;;;;;;10035239;28;20435;-81
2023/08/30 11:24:43;;;;;;;2.10;0.85;;;;;;;;;;10051625;28;20056;-82
2023/08/30 11:29:39;;;;;;;0.82;0.70;;;;;;;;;;10045113;28;20042;-80
2023/08/30 11:34:31;;;;;;;2.38;0.52;;;;;;;;;;10060599;28;20049;-81
2023/08/30 11:39:24;;;;;;;1.00;0.70;;;;;;;;;;10055586;28;20073;-80
2023/08/30 11:44:16;;;;;;;1.10;0.80;;;;;;;;;;10044068;28;20107;-81
2023/08/30 11:49:08;;;;;;;8.85;0.90;;;;;;;;;;10043645;28;20053;-83
2023/08/30 11:54:03;;;;;;;1.95;0.50;;;;;;;;;;10011072;28;20144;-83
2023/08/30 11:58:55;;;;;;;2.30;0.70;;;;;;;;;;10035094;28;20050;-82
2023/08/30 12:03:50;;;;;;;1.38;0.80;;;;;;;;;;10037045;28;20495;-83
2023/08/30 12:08:42;;;;;;;0.40;0.40;;;;;;;;;;10031890;28;20067;-83
2023/08/30 12:13:35;;;;;;;0.80;0.50;;;;;;;;;;10041645;28;20133;-83
2023/08/30 12:18:28;;;;;;;0.52;0.52;;;;;;;;;;10025258;28;20122;-83
2023/08/30 12:23:24;;;;;;;3.03;0.70;;;;;;;;;;10029963;28;20037;-83
2023/08/30 12:28:16;;;;;;;2.63;0.60;;;;;;;;;;9997782;28;20045;-83
2023/08/30 12:33:08;;;;;;;1.05;0.50;;;;;;;;;;10014753;28;20568;-80
2023/08/30 12:38:00;;;;;;;3.97;0.52;;;;;;;;;;10016004;28;20054;-79
2023/08/30 12:42:52;;;;;;;1.13;0.70;;;;;;;;;;10022980;28;20134;-77
2023/08/30 12:47:44;;;;;;;0.75;0.70;;;;;;;;;;10021615;28;20535;-79
2023/08/30 12:52:36;;;;;;;0.50;0.50;;;;;;;;;;10021003;28;20428;-79
2023/08/30 12:57:28;;;;;;;0.93;0.50;;;;;;;;;;10016310;28;20068;-79
2023/08/30 13:02:20;;;;;;;1.13;0.57;;;;;;;;;;10021144;28;20054;-79
2023/08/30 13:07:12;;;;;;;0.50;0.50;;;;;;;;;;10023708;28;20054;-78
2023/08/30 13:12:09;;;;;;;1.30;0.77;;;;;;;;;;10028783;28;20045;-79
2023/08/30 13:17:03;;;;;;;0.75;0.52;;;;;;;;;;10048794;28;20057;-76
2023/08/30 13:21:56;;;;;;;0.52;0.50;;;;;;;;;;10027813;28;20077;-78
2023/08/30 13:26:48;;;;;;;3.13;0.77;;;;;;;;;;10028661;28;20058;-83
2023/08/30 13:31:40;;;;;;;0.57;0.50;;;;;;;;;;10024373;28;20395;-82
2023/08/30 13:36:32;;;;;;;1.00;0.40;;;;;;;;;;10031820;28;20041;-81
2023/08/30 13:41:24;;;;;;;0.55;0.55;;;;;;;;;;10026207;28;20054;-79
2023/08/30 13:46:16;;;;;;;0.57;0.57;;;;;;;;;;10024341;28;20421;-79
2023/08/30 13:51:09;;;;;;;2.47;0.40;;;;;;;;;;10025136;28;20057;-79
2023/08/30 13:56:01;;;;;;;1.85;0.50;;;;;;;;;;10022892;28;20380;-79
2023/08/30 14:00:53;;;;;;;1.95;0.47;;;;;;;;;;10018383;28;20145;-79
2023/08/30 14:05:45;;;;;;;0.93;0.52;;;;;;;;;;10021472;28;20136;-79
2023/08/30 14:10:38;;;;;;;0.30;0.30;;;;;;;;;;10020907;28;20061;-79
2023/08/30 14:15:30;;;;;;;0.40;0.40;;;;;;;;;;10022816;28;20033;-79
2023/08/30 14:20:22;;;;;;;0.70;0.40;;;;;;;;;;10021888;28;20054;-77
2023/08/30 14:25:14;;;;;;;0.85;0.30;;;;;;;;;;10023885;28;20048;-74
2023/08/30 14:30:06;;;;;;;0.68;0.50;;;;;;;;;;10027518;28;20116;-79
2023/08/30 14:35:03;;;;;;;0.22;0.20;;;;;;;;;;10024176;28;20476;-79
2023/08/30 14:39:55;;;;;;;1.38;0.57;;;;;;;;;;10022391;28;20081;-78
2023/08/30 14:44:53;;;;;;;1.35;0.35;;;;;;;;;;10030532;28;20093;-80
2023/08/30 14:49:46;;;;;;;1.20;0.57;;;;;;;;;;10024944;28;20105;-80
2023/08/30 14:54:38;;;;;;;0.63;0.60;;;;;;;;;;10023873;28;20038;-80
2023/08/30 14:59:30;;;;;;;3.22;0.68;;;;;;;;;;10022602;28;20112;-80
2023/08/30 15:04:22;;;;;;;0.30;0.30;;;;;;;;;;10023128;28;20052;-80
2023/08/30 15:09:18;;;;;;;2.80;1.95;;;;;;;;;;10021999;28;20440;-78
2023/08/30 15:14:10;;;;;;;0.70;0.22;;;;;;;;;;10058847;28;20152;-80
2023/08/30 15:19:03;;;;;;;0.43;0.43;;;;;;;;;;10023179;28;20053;-80
2023/08/30 15:23:55;;;;;;;1.05;0.40;;;;;;;;;;10023311;28;20053;-79
2023/08/30 15:28:48;;;;;;;1.40;0.50;;;;;;;;;;10022686;28;20065;-80
2023/08/30 15:33:40;;;;;;;3.58;0.52;;;;;;;;;;10021600;28;20472;-78
2023/08/30 15:38:33;;;;;;;1.63;0.60;;;;;;;;;;10023425;28;20038;-79
2023/08/30 15:43:25;;;;;;;6.45;1.73;;;;;;;;;;10021357;28;20069;-77
2023/08/30 15:48:18;;;;;;;0.70;0.52;;;;;;;;;;10035945;28;20424;-81
2023/08/30 15:53:10;;;;;;;0.63;0.60;;;;;;;;;;10028953;28;20053;-77
2023/08/30 15:58:01;;;;;;;1.90;0.50;;;;;;;;;;10057547;28;20361;-80
2023/08/30 16:02:53;;;;;;;0.70;0.40;;;;;;;;;;10063441;28;20056;-81
2023/08/30 16:07:46;;;;;;;1.00;0.40;;;;;;;;;;10063182;28;20387;-78
2023/08/30 16:12:37;;;;;;;0.75;0.50;;;;;;;;;;10024470;28;20042;-81
2023/08/30 16:17:29;;;;;;;2.42;0.40;;;;;;;;;;10022246;28;20430;-78
2023/08/30 16:22:21;;;;;;;1.48;0.60;;;;;;;;;;10017512;28;20049;-79
2023/08/30 16:27:13;;;;;;;0.50;0.50;;;;;;;;;;10023481;28;20446;-78
2023/08/30 16:32:05;;;;;;;2.10;0.73;;;;;;;;;;10020659;28;20074;-79
2023/08/30 16:36:57;;;;;;;0.65;0.65;;;;;;;;;;10024940;28;20049;-79
2023/08/30 16:41:49;;;;;;;0.60;0.60;;;;;;;;;;10037175;28;20199;-78
2023/08/30 16:46:41;;;;;;;1.15;0.75;;;;;;;;;;10037559;28;20145;-78
2023/08/30 16:51:33;;;;;;;4.00;1.15;;;;;;;;;;10039911;28;20046;-78
2023/08/30 16:56:25;;;;;;;1.73;0.70;;;;;;;;;;10025351;28;20053;-78
2023/08/30 17:01:17;;;;;;;2.03;0.70;;;;;;;;;;10029334;28;20095;-77
2023/08/30 17:06:09;;;;;;;1.77;0.90;;;;;;;;;;10039292;28;20132;-78
2023/08/30 17:11:05;;;;;;;1.08;0.60;;;;;;;;;;10024043;28;20100;-76
2023/08/30 17:15:59;;;;;;;0.60;0.60;;;;;;;;;;10031282;28;20153;-79
2023/08/30 17:20:52;;;;;;;0.98;0.70;;;;;;;;;;10028014;28;20056;-80
2023/08/30 17:25:45;;;;;;;2.55;0.85;;;;;;;;;;10025729;28;20066;-80
2023/08/30 17:30:37;;;;;;;1.92;0.63;;;;;;;;;;10026168;28;20146;-78
2023/08/30 17:35:33;;;;;;;1.58;1.00;;;;;;;;;;10026421;28;20052;-80
2023/08/30 17:40:33;;;;;;;0.80;0.68;;;;;;;;;;10029201;28;20079;-80
2023/08/30 17:45:25;;;;;;;0.50;0.50;;;;;;;;;;10028808;28;20145;-80
2023/08/30 17:50:17;;;;;;;2.05;0.70;;;;;;;;;;10027804;28;20072;-80
2023/08/30 17:55:13;;;;;;;2.63;0.90;;;;;;;;;;10028307;28;20050;-80
2023/08/30 18:00:09;;;;;;;2.83;0.70;;;;;;;;;;10028484;28;20129;-78
2023/08/30 18:05:06;;;;;;;0.50;0.50;;;;;;;;;;10028617;28;20058;-79
2023/08/30 18:09:58;;;;;;;4.80;1.60;;;;;;;;;;10028000;28;20049;-80
2023/08/30 18:14:51;;;;;;;1.02;0.70;;;;;;;;;;10027773;28;20108;-78
2023/08/30 18:19:45;;;;;;;4.60;0.90;;;;;;;;;;10027284;28;20471;-79
2023/08/30 18:24:37;;;;;;;12.45;1.73;;;;;;;;;;10026865;28;20093;-79
2023/08/30 18:29:29;;;;;;;2.35;0.90;;;;;;;;;;10027543;28;20439;-79
2023/08/30 18:34:21;;;;;;;0.75;0.60;;;;;;;;;;10027121;28;20046;-78
2023/08/30 18:39:15;;;;;;;2.20;0.70;;;;;;;;;;10026535;28;20463;-80
2023/08/30 18:44:07;;;;;;;6.45;0.90;;;;;;;;;;10026736;28;20034;-78
2023/08/30 18:49:00;;;;;;;1.67;1.33;;;;;;;;;;10026790;28;20050;-80
2023/08/30 18:53:52;;;;;;;0.95;0.95;;;;;;;;;;10026500;28;20065;-78
2023/08/30 18:58:44;;;;;;;3.88;0.88;;;;;;;;;;10026176;28;20054;-80
2023/08/30 19:03:37;;;;;;;1.15;0.70;;;;;;;;;;10024953;28;20054;-78
2023/08/30 19:08:28;;;;;;;5.10;0.80;;;;;;;;;;10025892;28;20072;-78
2023/08/30 19:13:20;;;;;;;3.53;0.77;;;;;;;;;;10025700;28;20176;-79
2023/08/30 19:18:12;;;;;;;3.70;0.80;;;;;;;;;;10025576;28;20042;-77
2023/08/30 19:23:04;;;;;;;3.08;1.88;;;;;;;;;;10025200;28;20128;-77
2023/08/30 19:27:56;;;;;;;0.77;0.70;;;;;;;;;;10025282;28;20054;-79
2023/08/30 19:32:47;;;;;;;1.25;0.60;;;;;;;;;;10025118;28;20045;-77
2023/08/30 19:37:39;;;;;;;0.60;0.60;;;;;;;;;;10024729;28;20041;-78
2023/08/30 19:42:32;;;;;;;2.38;0.73;;;;;;;;;;10024599;28;20482;-77
2023/08/30 19:47:24;;;;;;;1.23;0.60;;;;;;;;;;10023951;28;20053;-77
2023/08/30 19:52:16;;;;;;;0.50;0.50;;;;;;;;;;10006193;28;20428;-78
2023/08/30 19:57:08;;;;;;;3.50;1.35;;;;;;;;;;10024492;28;20053;-78
2023/08/30 20:02:00;;;;;;;2.20;0.63;;;;;;;;;;10022222;28;20435;-78
2023/08/30 20:06:53;;;;;;;0.70;0.70;;;;;;;;;;10022593;28;20050;-78
2023/08/30 20:11:44;;;;;;;1.00;0.90;;;;;;;;;;10022264;28;20139;-77
2023/08/30 20:16:37;;;;;;;1.70;0.80;;;;;;;;;;10023010;28;20124;-77
2023/08/30 20:21:29;;;;;;;5.93;0.73;;;;;;;;;;10023789;28;20072;-78
2023/08/30 20:26:21;;;;;;;1.15;0.95;;;;;;;;;;10023583;28;20388;-78
2023/08/30 20:31:14;;;;;;;3.38;0.90;;;;;;;;;;10022922;28;20477;-78
2023/08/30 20:36:07;;;;;;;12.43;1.65;;;;;;;;;;10023370;28;20050;-77
2023/08/30 20:41:00;;;;;;;0.90;0.90;;;;;;;;;;10023146;28;20085;-77
2023/08/30 20:45:54;;;;;;;0.95;0.90;;;;;;;;;;10022773;28;20054;-78
2023/08/30 20:50:46;;;;;;;2.60;1.17;;;;;;;;;;10022783;28;20100;-79
2023/08/30 20:55:42;;;;;;;2.22;1.00;;;;;;;;;;10022940;28;20042;-80
2023/08/30 21:00:34;;;;;;;1.08;0.90;;;;;;;;;;10022599;28;20049;-79
2023/08/30 21:05:26;;;;;;;3.78;1.95;;;;;;;;;;10022858;28;20042;-77
2023/08/30 21:10:18;;;;;;;3.53;1.10;;;;;;;;;;10022771;28;20096;-76
2023/08/30 21:15:10;;;;;;;0.77;0.77;;;;;;;;;;10022345;28;20046;-77
2023/08/30 21:20:04;;;;;;;1.15;0.90;;;;;;;;;;10022558;28;20064;-77
2023/08/30 21:24:56;;;;;;;1.25;1.00;;;;;;;;;;10025478;28;20054;-79
2023/08/30 21:29:47;;;;;;;1.05;1.05;;;;;;;;;;10029259;28;20046;-77
2023/08/30 21:34:39;;;;;;;1.35;1.13;;;;;;;;;;10029548;28;20104;-79
2023/08/30 21:39:32;;;;;;;5.05;1.30;;;;;;;;;;10029344;28;20052;-78
2023/08/30 21:44:24;;;;;;;1.25;1.00;;;;;;;;;;10029019;28;20144;-79
2023/08/30 21:49:16;;;;;;;2.65;0.80;;;;;;;;;;10028389;28;20058;-78
2023/08/30 21:54:08;;;;;;;2.10;1.00;;;;;;;;;;10028991;28;20417;-76
2023/08/30 21:59:00;;;;;;;3.13;0.75;;;;;;;;;;10028145;28;20057;-77
2023/08/30 22:03:52;;;;;;;2.10;1.00;;;;;;;;;;10028174;28;20104;-76
2023/08/30 22:08:44;;;;;;;1.02;0.90;;;;;;;;;;10030640;28;20150;-75
2023/08/30 22:13:36;;;;;;;3.10;1.10;;;;;;;;;;10032119;28;20121;-76
2023/08/30 22:18:27;;;;;;;1.23;1.13;;;;;;;;;;10044639;28;20064;-77
2023/08/30 22:23:20;;;;;;;4.15;1.27;;;;;;;;;;10031362;28;20050;-78
2023/08/30 22:28:12;;;;;;;2.22;1.00;;;;;;;;;;10020533;28;20049;-77
2023/08/30 22:33:04;;;;;;;2.50;1.27;;;;;;;;;;10066137;28;20200;-77
2023/08/30 22:37:57;;;;;;;1.73;1.63;;;;;;;;;;10066198;28;20045;-78
2023/08/30 22:42:49;;;;;;;3.60;1.27;;;;;;;;;;10065791;28;20045;-77
2023/08/30 22:47:40;;;;;;;0.98;0.90;;;;;;;;;;10065862;28;20104;-76
2023/08/30 22:52:35;;;;;;;2.55;1.33;;;;;;;;;;10047920;28;20070;-77
2023/08/30 22:57:28;;;;;;;1.13;1.05;;;;;;;;;;10066009;28;20046;-77
2023/08/30 23:02:19;;;;;;;1.50;1.00;;;;;;;;;;10058501;28;20080;-77
2023/08/30 23:07:11;;;;;;;1.90;1.15;;;;;;;;;;10031526;28;20136;-77
2023/08/30 23:12:03;;;;;;;0.82;0.82;;;;;;;;;;10024330;28;20137;-79
2023/08/30 23:16:55;;;;;;;1.33;1.23;;;;;;;;;;10024454;28;20061;-77
2023/08/30 23:21:47;;;;;;;1.73;1.10;;;;;;;;;;10024362;28;20062;-73
2023/08/30 23:26:39;;;;;;;1.63;1.20;;;;;;;;;;10025163;28;20049;-77
2023/08/30 23:31:32;;;;;;;1.10;1.00;;;;;;;;;;10023576;28;20223;-77
2023/08/30 23:36:24;;;;;;;1.00;1.00;;;;;;;;;;10024876;28;20070;-76
2023/08/30 23:41:16;;;;;;;1.88;1.20;;;;;;;;;;10022927;28;20096;-78
2023/08/30 23:46:08;;;;;;;1.92;1.33;;;;;;;;;;10021628;28;20471;-78
2023/08/30 23:51:00;;;;;;;1.27;1.00;;;;;;;;;;10024552;28;20049;-78
2023/08/30 23:55:52;;;;;;;1.08;0.98;;;;;;;;;;10024918;28;20045;-74
